Atlantic - Newfoundland: Past 24 Hour Conditions

 

St. Lawrence

05:30 PM NST 22 November 2014
This table is a summary of hourly weather conditions for the past 24 hours.
Date / Time
(NST)
Wind(knots) Conditions Visibility(km) Pressure(kPa) Air tempC) Relative humidity(%) Dew pointC) Wind Chill
22 November 2014
17:30 W 20 gust 27 N/A N/A 100.9 -2 78 -5 -10
16:30 W 21 gust 26 N/A N/A 100.9 -2 75 -6 -10
15:30 W 18 gust 24 N/A N/A 100.8 -1 55 -9 -8
14:30 WNW 25 gust 35 N/A N/A 100.8 0 45 -11 -8
13:30 W 28 gust 37 N/A N/A 100.7 0 48 -10 -8
12:30 WNW 24 gust 33 N/A N/A 100.7 -1 55 -8 -9
11:30 WNW 24 gust 29 N/A N/A 100.7 -1 56 -9 -9
10:30 WNW 20 gust 31 N/A N/A 100.7 -2 57 -9 -9
9:30 WNW 19 gust 32 N/A N/A 100.7 -2 57 -9 -10
8:30 W 19 gust 27 N/A N/A 100.6 -3 64 -9 -11
7:30 WNW 17 N/A N/A 100.5 -3 70 -8 -11
6:30 W 14 gust 21 N/A N/A 100.4 -3 76 -7 -10
5:30 WNW 17 gust 24 N/A N/A 100.4 -3 64 -9 -10
4:30 WNW 13 gust 21 N/A N/A 100.3 -3 67 -8 -9
3:30 WNW 10 gust 20 N/A N/A 100.2 -2 70 -7 -8
2:30 W 13 gust 20 N/A N/A 100.1 -2 77 -5 -8
1:30 W 20 gust 26 N/A N/A 100.0 -1 69 -6 -9
0:30 W 13 gust 19 N/A N/A 100.0 -1 74 -6 -8
21 November 2014
23:30 WNW 17 gust 23 N/A N/A 100.0 -1 73 -5 -8
22:30 W 20 gust 25 N/A N/A 99.9 -1 84 -4 -9
21:30 WSW 19 gust 25 N/A N/A 100.0 -2 88 -3 -9
20:30 W 12 N/A N/A 100.0 -1 84 -4 -7
19:30 WSW 14 gust 22 N/A N/A 100.0 0 73 -4 -6
18:30 W 16 gust 23 N/A N/A 99.9 1 62 -6 *
17:30 W 16 gust 24 N/A N/A 99.9 1 66 -4 *
 
Map of Atlantic - Newfoundland marine weather areas Southwestern Grand Banks - 44138 Banquereau - 44139 Tail of the Bank - 44140 Nickerson Bank - 44251 Northeast Burgeo Bank - 44255 Blanc-Sablon Airport Cap Whittle Chevery Natashquan Airport Heath Point Miscou Island Grand Étang Ingonish Beach North Mountain St.Paul Island J.A. Douglas McCurdy Sydney Airport Charlottetown Airport East Point North Cape Argentia Bonavista Burgeo Cape Race Corner Brook Daniel's Harbour Englee Ferolle Point La Scie Port aux Basques Rocky Harbour Sagona Island St. Anthony Airport St. John's Int'l Airport St. Lawrence Stephenville Airport Twillingate Winterland Wreckhouse Cartwright Airport Mary's Harbour Grates Cove Pool's Island Marticot Island Long Pond Îles de la Madeleine Airport
Legend: buoyBuoy land stationLand Station